createdAt,value
2022-08-05T00:01:29.417Z,522.8
2022-08-05T00:02:52.642Z,522.8
2022-08-05T00:03:57.891Z,522.9
2022-08-05T00:04:59.742Z,523
2022-08-05T00:06:36.280Z,523.2
2022-08-05T00:08:02.617Z,523.1
2022-08-05T00:09:20.519Z,523.3
2022-08-05T00:10:27.735Z,523.5
2022-08-05T00:12:00.106Z,523.2
2022-08-05T00:13:03.459Z,523.7
2022-08-05T00:14:17.837Z,523.6
2022-08-05T00:16:00.846Z,523.3
2022-08-05T00:17:03.717Z,523.7
2022-08-05T00:18:23.181Z,523.5
2022-08-05T00:20:03.430Z,524.1
2022-08-05T00:21:08.968Z,523.8
2022-08-05T00:22:12.351Z,523.9
2022-08-05T00:23:14.202Z,523.8
2022-08-05T00:24:31.504Z,523.7
2022-08-05T00:25:46.790Z,524.3
2022-08-05T00:26:53.653Z,524.3
2022-08-05T00:27:56.835Z,524
2022-08-05T00:28:58.686Z,524.1
2022-08-05T00:30:03.915Z,524.4
2022-08-05T00:31:11.089Z,524.6
2022-08-05T00:32:16.318Z,524.3
2022-08-05T00:35:08.147Z,524.2
2022-08-05T00:37:14.675Z,523.8
2022-08-05T00:38:34.372Z,523.6
2022-08-05T00:39:59.624Z,523.5
2022-08-05T00:41:01.832Z,523.5
2022-08-05T00:42:03.694Z,523.2
2022-08-05T00:43:08.202Z,523.3
2022-08-05T00:44:12.399Z,523.7
2022-08-05T00:45:14.257Z,524.2
2022-08-05T00:46:16.933Z,524
2022-08-05T00:48:07.238Z,524.1
2022-08-05T00:49:15.096Z,523.7
2022-08-05T00:50:26.066Z,523.7
2022-08-05T00:51:53.516Z,523.7
2022-08-05T00:52:56.391Z,523.7
2022-08-05T00:54:04.587Z,523.5
2022-08-05T00:55:06.871Z,523.9
2022-08-05T00:56:08.905Z,524.1
2022-08-05T00:57:10.747Z,523.9
2022-08-05T00:58:13.624Z,523.7
2022-08-05T00:59:15.394Z,523.6
2022-08-05T01:00:22.234Z,523.6
2022-08-05T01:01:49.940Z,523.5
2022-08-05T01:02:53.798Z,523.7
2022-08-05T01:03:55.610Z,523.6
2022-08-05T01:04:57.492Z,523.5
2022-08-05T01:05:59.352Z,523.5
2022-08-05T01:07:05.800Z,523.6
2022-08-05T01:08:47.586Z,523.7
2022-08-05T01:09:56.397Z,523.5
2022-08-05T01:10:58.658Z,523.4
2022-08-05T01:12:19.527Z,523.4
2022-08-05T01:14:00.087Z,523.4
2022-08-05T01:15:05.851Z,523.3
2022-08-05T01:16:37.807Z,523.7
2022-08-05T01:17:44.496Z,523.5
2022-08-05T01:18:57.072Z,523.6
2022-08-05T01:20:04.144Z,523.7
2022-08-05T01:21:06.712Z,523.8
2022-08-05T01:22:28.340Z,524
2022-08-05T01:23:35.708Z,523.7
2022-08-05T01:24:38.377Z,523.8
2022-08-05T01:25:53.986Z,523.9
2022-08-05T01:26:55.900Z,523.8
2022-08-05T01:27:57.749Z,523.6
2022-08-05T01:29:06.055Z,523.7
2022-08-05T01:30:35.443Z,523.5
2022-08-05T01:31:46.817Z,523.1
2022-08-05T01:32:48.768Z,523.5
2022-08-05T01:33:55.741Z,523.4
2022-08-05T01:34:58.818Z,523.1
2022-08-05T01:36:02.414Z,523.6
2022-08-05T01:37:05.085Z,523.4
2022-08-05T01:38:06.933Z,523.1
2022-08-05T01:39:09.427Z,523.4
2022-08-05T01:40:11.348Z,523.3
2022-08-05T01:41:15.039Z,523.4
2022-08-05T01:42:17.406Z,522.9
2022-08-05T01:43:24.679Z,523.1
2022-08-05T01:44:36.051Z,523.2
2022-08-05T01:45:56.641Z,522.9
2022-08-05T01:46:58.798Z,523.1
2022-08-05T01:48:00.957Z,523
2022-08-05T01:49:25.243Z,523.4
2022-08-05T01:50:30.360Z,523.3
2022-08-05T01:51:32.207Z,523.2
2022-08-05T01:52:35.082Z,522.8
2022-08-05T01:54:02.331Z,523
2022-08-05T01:55:06.737Z,522.8
2022-08-05T01:56:10.225Z,522.8
2022-08-05T01:58:48.218Z,523.4
2022-08-05T01:59:50.085Z,523.4
2022-08-05T02:00:51.933Z,523.1
2022-08-05T02:01:58.033Z,523.4
2022-08-05T02:03:04.260Z,523.3
2022-08-05T02:04:06.081Z,523
2022-08-05T02:05:12.748Z,523.5
2022-08-05T02:06:39.615Z,523.1
2022-08-05T02:07:41.220Z,522.9
2022-08-05T02:08:59.676Z,523
2022-08-05T02:10:02.439Z,523
2022-08-05T02:11:04.113Z,523.1
2022-08-05T02:12:05.690Z,523.1
2022-08-05T02:13:17.811Z,523.1
2022-08-05T02:14:19.559Z,523.3
2022-08-05T02:15:21.240Z,523.1
2022-08-05T02:16:23.026Z,523
2022-08-05T02:18:36.578Z,523
2022-08-05T02:19:48.167Z,523.4
2022-08-05T02:20:49.798Z,523.6
2022-08-05T02:21:52.418Z,523.4
2022-08-05T02:22:55.804Z,523.5
2022-08-05T02:23:57.511Z,523.8
2022-08-05T02:25:00.711Z,523.8
2022-08-05T02:26:02.372Z,523.6
2022-08-05T02:27:11.045Z,523.7
2022-08-05T02:28:37.937Z,523.7
2022-08-05T02:30:01.558Z,523.6
2022-08-05T02:31:04.711Z,524.1
2022-08-05T02:32:11.299Z,524.1
2022-08-05T02:33:39.268Z,523.9
2022-08-05T02:34:41.424Z,523.7
2022-08-05T02:36:02.101Z,524
2022-08-05T02:37:04.905Z,524.1
2022-08-05T02:38:19.867Z,524.2
2022-08-05T02:39:22.309Z,524.2
2022-08-05T02:40:28.048Z,524.4
2022-08-05T02:42:01.932Z,524
2022-08-05T02:43:09.891Z,524.1
2022-08-05T02:44:14.053Z,524.3
2022-08-05T02:45:16.726Z,524.2
2022-08-05T02:46:30.117Z,524
2022-08-05T02:48:13.860Z,523.9
2022-08-05T02:49:15.392Z,523.9
2022-08-05T02:50:18.676Z,523.9
2022-08-05T02:52:05.027Z,524.2
2022-08-05T02:53:19.824Z,524.2
2022-08-05T02:54:42.222Z,524
2022-08-05T02:56:02.652Z,523.9
2022-08-05T02:58:13.443Z,524.1
2022-08-05T02:59:15.299Z,523.9
2022-08-05T03:00:17.144Z,524.1
2022-08-05T03:01:20.331Z,524
2022-08-05T03:02:21.913Z,524.2
2022-08-05T03:03:24.331Z,524.4
2022-08-05T03:04:26.664Z,524.2
2022-08-05T03:07:00.593Z,524.2
2022-08-05T03:08:11.603Z,524.4
2022-08-05T03:09:43.419Z,524.2
2022-08-05T03:11:58.658Z,524.3
2022-08-05T03:14:08.349Z,524.3
2022-08-05T03:15:12.933Z,523.8
2022-08-05T03:16:20.489Z,524.1
2022-08-05T03:17:27.370Z,524
2022-08-05T03:18:31.090Z,523.9
2022-08-05T03:19:36.605Z,524.1
2022-08-05T03:20:51.449Z,523.8
2022-08-05T03:21:53.035Z,523.7
2022-08-05T03:22:58.535Z,523.8
2022-08-05T03:24:02.869Z,523.7
2022-08-05T03:26:32.813Z,524.1
2022-08-05T03:28:01.016Z,523.9
2022-08-05T03:29:04.126Z,523.7
2022-08-05T03:30:09.649Z,523.6
2022-08-05T03:32:00.859Z,524
2022-08-05T03:33:03.434Z,524.1
2022-08-05T03:34:05.030Z,523.8
2022-08-05T03:35:09.474Z,523.9
2022-08-05T03:36:12.660Z,523.8
2022-08-05T03:37:14.746Z,524.1
2022-08-05T03:38:32.653Z,523.8
2022-08-05T03:40:03.934Z,523.8
2022-08-05T03:41:11.360Z,523.8
2022-08-05T03:42:16.387Z,523.7
2022-08-05T03:44:12.396Z,523.6
2022-08-05T03:45:24.099Z,523.4
2022-08-05T03:46:33.017Z,523.8
2022-08-05T03:47:42.314Z,523.5
2022-08-05T03:48:47.147Z,523.6
2022-08-05T03:49:52.899Z,523.5
2022-08-05T03:50:54.762Z,523
2022-08-05T03:56:17.102Z,523.3
2022-08-05T03:57:46.075Z,523.1
2022-08-05T03:58:51.704Z,523
2022-08-05T03:59:56.122Z,522.9
2022-08-05T04:01:00.755Z,522.9
2022-08-05T04:02:06.384Z,523.1
2022-08-05T04:03:29.618Z,523
2022-08-05T04:04:31.196Z,523
2022-08-05T04:05:35.265Z,523
2022-08-05T04:06:36.777Z,523.2
2022-08-05T04:07:59.420Z,523
2022-08-05T04:09:01.502Z,523.1
2022-08-05T04:10:03.783Z,523.5
2022-08-05T04:11:05.592Z,523.4
2022-08-05T04:12:25.397Z,523.1
2022-08-05T04:13:53.879Z,523
2022-08-05T04:14:58.911Z,523.3
2022-08-05T04:16:05.355Z,523.2
2022-08-05T04:17:06.998Z,523.3
2022-08-05T04:18:25.728Z,523.4
2022-08-05T04:19:27.996Z,523.5
2022-08-05T04:20:33.732Z,523.5
2022-08-05T04:22:12.750Z,523.3
2022-08-05T04:24:22.876Z,523.3
2022-08-05T04:26:01.516Z,523.4
2022-08-05T04:27:08.013Z,523.4
2022-08-05T04:28:13.784Z,523.4
2022-08-05T04:29:16.574Z,523.5
2022-08-05T04:30:18.473Z,523.7
2022-08-05T04:31:20.285Z,523.5
2022-08-05T04:32:37.912Z,523.7
2022-08-05T04:34:43.576Z,523.4
2022-08-05T04:36:50.631Z,523.3
2022-08-05T04:38:07.334Z,523.7
2022-08-05T04:39:11.560Z,523.7
2022-08-05T04:40:20.145Z,523.7
2022-08-05T04:41:39.266Z,523.8
2022-08-05T04:42:46.778Z,523.8
2022-08-05T04:43:53.376Z,523.2
2022-08-05T04:44:55.006Z,523.3
2022-08-05T04:45:56.872Z,523.5
2022-08-05T04:47:18.699Z,523.4
2022-08-05T04:48:28.926Z,523.5
2022-08-05T04:50:12.128Z,523.6
2022-08-05T04:51:14.094Z,523.4
2022-08-05T04:52:15.763Z,523.3
2022-08-05T04:53:17.402Z,523.3
2022-08-05T04:54:18.934Z,523.1
2022-08-05T04:56:37.602Z,523.5
2022-08-05T04:57:54.660Z,523.7
2022-08-05T04:58:56.842Z,523.7
2022-08-05T04:59:59.312Z,523.6
2022-08-05T05:01:01.668Z,523.6
2022-08-05T05:02:43.872Z,523.7
2022-08-05T05:03:45.609Z,523.5
2022-08-05T05:04:51.857Z,523.6
2022-08-05T05:06:57.932Z,523.7
2022-08-05T05:08:02.922Z,524.1
2022-08-05T05:09:07.073Z,523.7
2022-08-05T05:10:08.608Z,523.8
2022-08-05T05:11:16.572Z,523.9
2022-08-05T05:12:18.218Z,524.1
2022-08-05T05:13:21.527Z,524.1
2022-08-05T05:14:32.676Z,523.9
2022-08-05T05:16:07.490Z,524.2
2022-08-05T05:17:10.103Z,524.4
2022-08-05T05:18:12.001Z,524.3
2022-08-05T05:19:47.614Z,524
2022-08-05T05:20:51.062Z,524
2022-08-05T05:21:56.165Z,524.3
2022-08-05T05:22:58.424Z,524.3
2022-08-05T05:24:09.710Z,524.5
2022-08-05T05:25:17.989Z,524.4
2022-08-05T05:26:32.596Z,524.5
2022-08-05T05:27:56.403Z,524.4
2022-08-05T05:28:57.952Z,524.6
2022-08-05T05:30:29.979Z,524.3
2022-08-05T05:32:35.827Z,524.7
2022-08-05T05:34:03.189Z,524.8
2022-08-05T05:35:06.502Z,524.8
2022-08-05T05:36:16.228Z,524.7
2022-08-05T05:37:18.501Z,524.9
2022-08-05T05:38:28.231Z,524.5
2022-08-05T05:39:37.374Z,524.5
2022-08-05T05:40:52.087Z,524.6
2022-08-05T05:41:57.123Z,524.3
2022-08-05T05:42:59.269Z,524
2022-08-05T05:44:01.427Z,524.1
2022-08-05T05:45:03.638Z,524
2022-08-05T05:46:17.896Z,524
2022-08-05T05:48:09.116Z,523.9
2022-08-05T05:49:23.804Z,524
2022-08-05T05:50:26.289Z,524.6
2022-08-05T05:51:28.718Z,524.2
2022-08-05T05:52:46.744Z,524.1
2022-08-05T05:54:00.478Z,524.1
2022-08-05T05:55:14.061Z,524.1
2022-08-05T05:56:35.099Z,523.7
2022-08-05T05:57:53.638Z,523.9
2022-08-05T05:58:56.119Z,523.8
2022-08-05T05:59:57.794Z,523.6
2022-08-05T06:01:15.776Z,523.6
2022-08-05T06:02:38.123Z,523.9
2022-08-05T06:04:04.410Z,523.7
2022-08-05T06:05:17.793Z,523.8
2022-08-05T06:06:22.978Z,523.6
2022-08-05T06:08:03.978Z,523.7
2022-08-05T06:09:08.357Z,523.5
2022-08-05T06:10:11.239Z,523.8
2022-08-05T06:11:14.208Z,524
2022-08-05T06:12:16.108Z,523.9
2022-08-05T06:13:25.310Z,523.8
2022-08-05T06:14:29.609Z,523.7
2022-08-05T06:16:37.798Z,523.5
2022-08-05T06:17:55.307Z,523.4
2022-08-05T06:19:07.037Z,523.4
2022-08-05T06:20:22.257Z,523.3
2022-08-05T06:21:49.651Z,523.2
2022-08-05T06:22:51.503Z,523.1
2022-08-05T06:23:53.738Z,522.9
2022-08-05T06:24:56.108Z,522.9
2022-08-05T06:26:33.865Z,522.9
2022-08-05T06:28:22.375Z,523.2
2022-08-05T06:30:20.197Z,523.1
2022-08-05T06:31:33.801Z,523.3
2022-08-05T06:32:35.801Z,523.5
2022-08-05T06:34:10.983Z,523.2
2022-08-05T06:36:10.599Z,523.2
2022-08-05T06:37:12.864Z,523.5
2022-08-05T06:38:16.543Z,523.3
2022-08-05T06:39:28.352Z,523.6
2022-08-05T06:40:33.810Z,523.9
2022-08-05T06:41:41.750Z,523.7
2022-08-05T06:42:46.712Z,523.5
2022-08-05T06:44:01.221Z,523.5
2022-08-05T06:45:44.274Z,523.8
2022-08-05T06:48:58.505Z,523.8
2022-08-05T06:50:06.072Z,523.9
2022-08-05T06:51:31.271Z,523.9
2022-08-05T06:52:40.829Z,524.1
2022-08-05T06:53:54.134Z,524.1
2022-08-05T06:54:55.768Z,524
2022-08-05T06:55:57.294Z,524.2
2022-08-05T06:58:37.365Z,524.1
2022-08-05T06:59:58.463Z,524.1
2022-08-05T07:01:00.873Z,524.1
2022-08-05T07:02:02.746Z,524.1
2022-08-05T07:03:10.277Z,524.3
2022-08-05T07:04:19.369Z,524.4
2022-08-05T07:05:41.609Z,524.8
2022-08-05T07:06:43.253Z,524.3
2022-08-05T07:07:47.794Z,524.5
2022-08-05T07:08:55.577Z,524.6
2022-08-05T07:09:58.956Z,524.6
2022-08-05T07:11:04.868Z,524.6
2022-08-05T07:12:08.499Z,524.7
2022-08-05T07:13:10.550Z,524.7
2022-08-05T07:14:34.463Z,524.6
2022-08-05T07:16:05.122Z,524.5
2022-08-05T07:18:21.222Z,524.5
2022-08-05T07:20:36.322Z,524.5
2022-08-05T07:22:02.958Z,524.4
2022-08-05T07:23:05.120Z,524.1
2022-08-05T07:24:11.958Z,524.5
2022-08-05T07:25:57.417Z,524.2
2022-08-05T07:27:03.163Z,524.2
2022-08-05T07:28:18.214Z,524.6
2022-08-05T07:30:33.877Z,524.5
2022-08-05T07:31:55.818Z,524.7
2022-08-05T07:32:57.972Z,524.6
2022-08-05T07:34:00.435Z,524.8
2022-08-05T07:36:22.165Z,524.9
2022-08-05T07:37:39.795Z,524.9
2022-08-05T07:38:55.351Z,525.1
2022-08-05T07:40:35.514Z,525.1
2022-08-05T07:42:33.875Z,524.9
2022-08-05T07:43:37.911Z,524.8
2022-08-05T07:44:40.151Z,525.2
2022-08-05T07:45:59.288Z,525
2022-08-05T07:47:10.236Z,525
2022-08-05T07:49:08.114Z,525
2022-08-05T07:50:09.667Z,525.3
2022-08-05T07:51:55.438Z,525.1
2022-08-05T07:52:58.336Z,525.3
2022-08-05T07:54:02.414Z,525.3
2022-08-05T07:57:14.981Z,525.2
2022-08-05T07:58:59.913Z,525.2
2022-08-05T08:00:01.762Z,525
2022-08-05T08:01:15.709Z,524.9
2022-08-05T08:02:18.851Z,524.8
2022-08-05T08:03:22.076Z,524.9
2022-08-05T08:04:38.748Z,525
2022-08-05T08:05:50.208Z,524.9
2022-08-05T08:06:51.983Z,524.9
2022-08-05T08:08:01.091Z,524.9
2022-08-05T08:09:05.997Z,525.3
2022-08-05T08:10:08.795Z,525.2
2022-08-05T08:11:16.502Z,525.3
2022-08-05T08:12:50.365Z,525.2
2022-08-05T08:14:01.732Z,525.7
2022-08-05T08:15:14.185Z,525.6
2022-08-05T08:16:53.973Z,525.2
2022-08-05T08:18:14.610Z,525.5
2022-08-05T08:21:04.213Z,525.3
2022-08-05T08:22:16.862Z,525.8
2022-08-05T08:24:14.016Z,525.5
2022-08-05T08:26:04.571Z,525.4
2022-08-05T08:27:08.585Z,525.8
2022-08-05T08:29:02.523Z,525.7
2022-08-05T08:30:50.763Z,526
2022-08-05T08:31:52.723Z,525.6
2022-08-05T08:32:54.909Z,525.8
2022-08-05T08:33:58.139Z,526.2
2022-08-05T08:34:59.842Z,526.1
2022-08-05T08:37:03.184Z,525.9
2022-08-05T08:38:07.136Z,526.3
2022-08-05T08:39:19.669Z,526.5
2022-08-05T08:40:22.760Z,526.2
2022-08-05T08:42:06.502Z,526.4
2022-08-05T08:45:30.808Z,526.5
2022-08-05T08:46:33.022Z,526.4
2022-08-05T08:50:14.763Z,526.6
2022-08-05T08:52:25.347Z,526.4
2022-08-05T08:53:29.272Z,526.6
2022-08-05T08:54:32.544Z,526.5
2022-08-05T08:56:07.038Z,526.5
2022-08-05T08:57:13.804Z,526.6
2022-08-05T08:58:15.554Z,526.9
2022-08-05T08:59:33.375Z,527
2022-08-05T09:00:36.462Z,526.9
2022-08-05T09:02:01.446Z,527.2
2022-08-05T09:03:02.997Z,527.3
2022-08-05T09:04:11.515Z,527.5
2022-08-05T09:06:11.041Z,527.6
2022-08-05T09:07:58.308Z,527.9
2022-08-05T09:09:02.343Z,528.1
2022-08-05T09:10:05.814Z,528.2
2022-08-05T09:11:14.324Z,528.2
2022-08-05T09:12:29.794Z,528.1
2022-08-05T09:15:04.836Z,528.8
2022-08-05T09:16:18.175Z,529
2022-08-05T09:17:53.262Z,529
2022-08-05T09:18:59.735Z,529.4
2022-08-05T09:20:08.647Z,529.5
2022-08-05T09:22:33.533Z,529.4
2022-08-05T09:23:44.302Z,529.6
2022-08-05T09:24:49.311Z,529.9
2022-08-05T09:26:09.465Z,530.1
2022-08-05T09:28:06.744Z,530.5
2022-08-05T09:29:09.499Z,530.5
2022-08-05T09:30:23.981Z,530.8
2022-08-05T09:32:48.954Z,530.9
2022-08-05T09:33:53.876Z,531.3
2022-08-05T09:34:55.644Z,531.1
2022-08-05T09:35:57.226Z,530.9
2022-08-05T09:37:00.556Z,530.9
2022-08-05T09:38:29.976Z,531.1
2022-08-05T09:39:57.134Z,530.9
2022-08-05T09:40:59.601Z,531.8
2022-08-05T09:42:03.683Z,531.5
2022-08-05T09:43:09.621Z,531.6
2022-08-05T09:44:11.761Z,531.8
2022-08-05T09:46:15.648Z,531.2
2022-08-05T09:47:21.723Z,532
2022-08-05T09:48:30.226Z,532.1
2022-08-05T09:50:03.924Z,532.1
2022-08-05T09:51:16.245Z,532
2022-08-05T09:52:18.125Z,532.4
2022-08-05T09:54:00.696Z,532.5
2022-08-05T09:56:13.691Z,532.6
2022-08-05T09:57:25.264Z,532.4
2022-08-05T09:58:29.725Z,532.7
2022-08-05T09:59:37.776Z,532.6
2022-08-05T10:00:41.001Z,532.9
2022-08-05T10:01:46.799Z,532.7
2022-08-05T10:02:49.630Z,532.8
2022-08-05T10:04:00.839Z,532.9
2022-08-05T10:05:08.247Z,533
2022-08-05T10:06:16.447Z,532.9
2022-08-05T10:08:38.560Z,533.2
2022-08-05T10:09:46.079Z,533.4
2022-08-05T10:11:10.729Z,533.4
2022-08-05T10:12:36.713Z,533.3
2022-08-05T10:13:55.794Z,533.8
2022-08-05T10:14:57.379Z,534.3
2022-08-05T10:15:59.790Z,534.2
2022-08-05T10:17:01.326Z,534
2022-08-05T10:18:07.899Z,534.1
2022-08-05T10:19:12.135Z,533.9
2022-08-05T10:20:20.428Z,533.9
2022-08-05T10:21:23.895Z,534.5
2022-08-05T10:22:38.388Z,534.7
2022-08-05T10:24:10.973Z,534.5
2022-08-05T10:25:14.950Z,534.6
2022-08-05T10:26:17.310Z,534.6
2022-08-05T10:28:28.882Z,534.7
2022-08-05T10:33:03.093Z,534.8
2022-08-05T10:34:08.521Z,536
2022-08-05T10:35:10.715Z,535.8
2022-08-05T10:36:12.542Z,535
2022-08-05T10:37:14.822Z,534.8
2022-08-05T10:38:26.369Z,535.1
2022-08-05T10:40:19.788Z,534.9
2022-08-05T10:41:24.192Z,535.1
2022-08-05T10:42:38.277Z,534.9
2022-08-05T10:43:45.397Z,534.9
2022-08-05T10:44:47.103Z,535.6
2022-08-05T10:45:50.829Z,535.8
2022-08-05T10:47:31.546Z,535.5
2022-08-05T10:49:06.444Z,535.8
2022-08-05T10:50:37.679Z,535.7
2022-08-05T10:52:10.271Z,536.5
2022-08-05T10:53:23.087Z,536.4
2022-08-05T10:54:56.011Z,536
2022-08-05T10:56:26.506Z,535.7
2022-08-05T10:57:35.110Z,536.1
2022-08-05T10:58:51.119Z,536.5
2022-08-05T11:00:20.803Z,536.3
2022-08-05T11:02:05.889Z,536.7
2022-08-05T11:03:27.711Z,537.1
2022-08-05T11:04:37.498Z,537.3
2022-08-05T11:05:39.191Z,537.3
2022-08-05T11:06:40.909Z,537.5
2022-08-05T11:08:36.891Z,537.8
2022-08-05T11:09:47.788Z,537.9
2022-08-05T11:11:16.440Z,537.8
2022-08-05T11:12:18.316Z,537
2022-08-05T11:13:20.482Z,537.8
2022-08-05T11:15:21.479Z,537.5
2022-08-05T11:17:05.004Z,537.7
2022-08-05T11:20:22.525Z,538.3
2022-08-05T11:21:24.131Z,538.6
2022-08-05T11:22:25.767Z,538.3
2022-08-05T11:24:31.402Z,538.2
2022-08-05T11:26:10.176Z,538.3
2022-08-05T11:27:12.402Z,538.6
2022-08-05T11:28:17.817Z,538.6
2022-08-05T11:29:20.611Z,538.7
2022-08-05T11:30:30.612Z,538.7
2022-08-05T11:32:01.689Z,539
2022-08-05T11:33:21.473Z,539
2022-08-05T11:34:33.708Z,539.2
2022-08-05T11:36:09.181Z,539.2
2022-08-05T11:38:52.462Z,539.7
2022-08-05T11:40:05.062Z,539.9
2022-08-05T11:42:04.920Z,539.8
2022-08-05T11:43:06.519Z,539.7
2022-08-05T11:44:11.864Z,539.8
2022-08-05T11:46:35.149Z,540.2
2022-08-05T11:47:55.273Z,539.8
2022-08-05T11:48:59.719Z,539.7
2022-08-05T11:50:02.389Z,540.1
2022-08-05T11:51:49.124Z,540.3
2022-08-05T11:53:01.387Z,540.1
2022-08-05T11:54:04.170Z,539.8
2022-08-05T11:55:12.760Z,540.3
2022-08-05T11:56:14.622Z,540
2022-08-05T11:57:30.810Z,540.1
2022-08-05T11:58:53.341Z,540.2
2022-08-05T11:59:55.287Z,540.2
2022-08-05T12:00:57.997Z,540.4
2022-08-05T12:01:59.597Z,540.3
2022-08-05T12:03:02.188Z,540.4
2022-08-05T12:04:04.935Z,540.7
2022-08-05T12:05:19.466Z,540.5
2022-08-05T12:06:21.043Z,541
2022-08-05T12:08:18.641Z,540.9
2022-08-05T12:09:54.432Z,541.2
2022-08-05T12:10:56.075Z,541.1
2022-08-05T12:12:04.173Z,541.2
2022-08-05T12:13:50.171Z,541.4
2022-08-05T12:14:56.560Z,541.6
2022-08-05T12:15:58.812Z,541.8
2022-08-05T12:18:11.906Z,542.3
2022-08-05T12:20:34.537Z,542
2022-08-05T12:21:39.877Z,541.7
2022-08-05T12:22:51.980Z,541.9
2022-08-05T12:23:53.806Z,542
2022-08-05T12:24:55.450Z,542.1
2022-08-05T12:25:57.943Z,542.1
2022-08-05T12:27:25.717Z,542.5
2022-08-05T12:28:37.924Z,542.3
2022-08-05T12:29:39.749Z,542.3
2022-08-05T12:30:46.666Z,542.3
2022-08-05T12:31:55.447Z,542.8
2022-08-05T12:33:38.745Z,542.4
2022-08-05T12:34:40.553Z,542.4
2022-08-05T12:35:43.587Z,542.8
2022-08-05T12:36:49.579Z,542.9
2022-08-05T12:37:56.072Z,543
2022-08-05T12:38:57.925Z,542.9
2022-08-05T12:40:29.675Z,542.8
2022-08-05T12:41:44.116Z,543.2
2022-08-05T12:42:49.136Z,543.6
2022-08-05T12:43:51.053Z,543.4
2022-08-05T12:44:52.682Z,543.8
2022-08-05T12:45:57.031Z,544
2022-08-05T12:46:58.581Z,543.7
2022-08-05T12:48:33.412Z,544
2022-08-05T12:50:10.676Z,544.1
2022-08-05T12:52:30.463Z,544.1
2022-08-05T12:53:39.112Z,544.3
2022-08-05T12:54:40.812Z,544.4
2022-08-05T12:55:43.615Z,544.8
2022-08-05T12:56:51.370Z,544.5
2022-08-05T12:59:04.300Z,544.7
2022-08-05T13:02:10.468Z,544.5
2022-08-05T13:03:15.632Z,544.7
2022-08-05T13:04:25.945Z,544.6
2022-08-05T13:05:38.046Z,544.7
2022-08-05T13:06:53.283Z,544.6
2022-08-05T13:08:02.663Z,544.9
2022-08-05T13:09:14.081Z,544.9
2022-08-05T13:10:29.547Z,545.1
2022-08-05T13:12:04.065Z,545.3
2022-08-05T13:13:09.315Z,545.3
2022-08-05T13:14:20.052Z,545.4
2022-08-05T13:15:51.398Z,545.7
2022-08-05T13:16:57.139Z,545.7
2022-08-05T13:18:01.511Z,545.9
2022-08-05T13:19:03.951Z,546
2022-08-05T13:20:08.932Z,546.5
2022-08-05T13:21:14.287Z,546
2022-08-05T13:22:31.473Z,546.2
2022-08-05T13:23:34.781Z,546.5
2022-08-05T13:25:21.892Z,546.4
2022-08-05T13:26:30.810Z,546.3
2022-08-05T13:27:40.391Z,546.4
2022-08-05T13:28:44.669Z,546.6
2022-08-05T13:30:39.626Z,546.5
2022-08-05T13:32:06.369Z,546.6
2022-08-05T13:33:08.764Z,546.9
2022-08-05T13:34:26.811Z,547.1
2022-08-05T13:35:52.208Z,546.6
2022-08-05T13:36:54.036Z,547.4
2022-08-05T13:38:05.992Z,547.4
2022-08-05T13:40:42.404Z,547
2022-08-05T13:41:53.418Z,547.4
2022-08-05T13:42:56.206Z,547.4
2022-08-05T13:43:57.839Z,547.5
2022-08-05T13:44:59.588Z,547.4
2022-08-05T13:46:01.384Z,546.9
2022-08-05T13:47:35.303Z,547.2
2022-08-05T13:49:04.356Z,547.4
2022-08-05T13:50:17.234Z,547.5
2022-08-05T13:51:20.145Z,547.4
2022-08-05T13:52:35.980Z,547.8
2022-08-05T13:53:48.901Z,547.7
2022-08-05T13:54:54.036Z,548
2022-08-05T13:56:02.597Z,548.1
2022-08-05T13:57:07.240Z,547.9
2022-08-05T13:58:11.492Z,548.1
2022-08-05T13:59:30.793Z,548.2
2022-08-05T14:00:34.619Z,548.2
2022-08-05T14:02:00.892Z,548.3
2022-08-05T14:03:03.643Z,548.2
2022-08-05T14:04:06.376Z,548.3
2022-08-05T14:05:48.746Z,548.2
2022-08-05T14:08:32.477Z,548.8
2022-08-05T14:09:46.892Z,549.1
2022-08-05T14:10:48.916Z,548.8
2022-08-05T14:12:33.149Z,548.7
2022-08-05T14:13:34.993Z,549.1
2022-08-05T14:14:36.981Z,549.3
2022-08-05T14:16:19.100Z,549.3
2022-08-05T14:17:20.770Z,549.4
2022-08-05T14:18:24.599Z,549.2
2022-08-05T14:19:28.941Z,549.2
2022-08-05T14:20:30.652Z,549.4
2022-08-05T14:22:12.655Z,549.2
2022-08-05T14:23:28.787Z,549.2
2022-08-05T14:24:36.197Z,549.4
2022-08-05T14:25:54.574Z,549.4
2022-08-05T14:27:19.330Z,549.8
2022-08-05T14:28:29.165Z,550
2022-08-05T14:29:31.846Z,549.9
2022-08-05T14:30:39.337Z,549.6
2022-08-05T14:32:28.152Z,549.7
2022-08-05T14:34:01.699Z,550.1
2022-08-05T14:35:03.382Z,549.7
2022-08-05T14:36:07.913Z,550
2022-08-05T14:37:14.579Z,550.1
2022-08-05T14:38:36.598Z,550
2022-08-05T14:39:59.590Z,550.1
2022-08-05T14:41:01.237Z,550.1
2022-08-05T14:42:30.220Z,550.5
2022-08-05T14:44:21.743Z,550.4
2022-08-05T14:45:23.742Z,550.3
2022-08-05T14:46:30.918Z,550.6
2022-08-05T14:48:33.600Z,550.6
2022-08-05T14:50:19.418Z,551.4
2022-08-05T14:51:21.256Z,551
2022-08-05T14:53:00.143Z,551
2022-08-05T14:54:34.156Z,551.2
2022-08-05T14:55:40.708Z,551.5
2022-08-05T14:56:47.485Z,551.6
2022-08-05T14:57:57.210Z,551.4
2022-08-05T14:58:58.715Z,551.5
2022-08-05T15:00:00.292Z,551.8
2022-08-05T15:01:02.184Z,551.6
2022-08-05T15:02:16.831Z,551.6
2022-08-05T15:03:23.259Z,551.3
2022-08-05T15:04:29.707Z,551.5
2022-08-05T15:06:16.314Z,551.7
2022-08-05T15:09:04.011Z,551.6
2022-08-05T15:10:10.907Z,552.1
2022-08-05T15:11:13.017Z,552.6
2022-08-05T15:12:17.942Z,552.4
2022-08-05T15:13:50.562Z,552.8
2022-08-05T15:14:56.507Z,552.5
2022-08-05T15:15:58.147Z,552.7
2022-08-05T15:17:00.042Z,552.8
2022-08-05T15:18:06.375Z,552.8
2022-08-05T15:19:24.489Z,552.7
2022-08-05T15:20:27.793Z,552.6
2022-08-05T15:21:35.640Z,553.1
2022-08-05T15:22:37.739Z,553
2022-08-05T15:23:40.607Z,552.8
2022-08-05T15:24:42.364Z,553.1
2022-08-05T15:26:03.378Z,553.1
2022-08-05T15:27:09.762Z,553.5
2022-08-05T15:28:16.459Z,553.2
2022-08-05T15:29:22.918Z,553.5
2022-08-05T15:30:25.715Z,553.7
2022-08-05T15:31:35.529Z,553.9
2022-08-05T15:32:37.308Z,554
2022-08-05T15:34:34.189Z,554.4
2022-08-05T15:35:46.009Z,553.9
2022-08-05T15:36:47.785Z,553.9
2022-08-05T15:38:43.039Z,553.7
2022-08-05T15:41:58.633Z,554
2022-08-05T15:43:22.083Z,554
2022-08-05T15:44:28.073Z,554.6
2022-08-05T15:45:39.551Z,554.4
2022-08-05T15:46:41.605Z,554
2022-08-05T15:47:43.341Z,554
2022-08-05T15:49:13.382Z,553.8
2022-08-05T15:50:26.153Z,553.8
2022-08-05T15:52:56.447Z,553.5
2022-08-05T15:54:08.556Z,553.6
2022-08-05T15:55:16.750Z,554
2022-08-05T15:56:19.125Z,553.5
2022-08-05T15:57:20.895Z,553.9
2022-08-05T15:58:23.749Z,554.2
2022-08-05T15:59:25.326Z,553.8
2022-08-05T16:01:18.510Z,554
2022-08-05T16:02:30.644Z,553.9
2022-08-05T16:03:34.411Z,553.9
2022-08-05T16:04:35.967Z,553.8
2022-08-05T16:05:42.218Z,553.6
2022-08-05T16:06:43.855Z,553.9
2022-08-05T16:07:50.004Z,553.4
2022-08-05T16:08:58.827Z,553.8
2022-08-05T16:10:00.670Z,553.8
2022-08-05T16:11:02.520Z,554
2022-08-05T16:12:06.722Z,554
2022-08-05T16:13:08.262Z,553.9
2022-08-05T16:14:09.890Z,553.8
2022-08-05T16:15:19.272Z,553.7
2022-08-05T16:16:27.206Z,553.8
2022-08-05T16:17:33.075Z,553.7
2022-08-05T16:18:52.591Z,553.5
2022-08-05T16:20:12.688Z,553.5
2022-08-05T16:21:14.386Z,553.6
2022-08-05T16:22:16.478Z,553.3
2022-08-05T16:23:18.274Z,553.7
2022-08-05T16:24:52.591Z,553.4
2022-08-05T16:25:57.292Z,553.7
2022-08-05T16:26:59.060Z,553.5
2022-08-05T16:28:10.827Z,553.3
2022-08-05T16:29:20.259Z,553.5
2022-08-05T16:30:29.682Z,553.2
2022-08-05T16:31:58.175Z,553.5
2022-08-05T16:33:00.010Z,553.3
2022-08-05T16:34:05.798Z,553
2022-08-05T16:35:18.660Z,553.2
2022-08-05T16:36:29.422Z,553.1
2022-08-05T16:38:28.715Z,553.1
2022-08-05T16:40:29.623Z,552.8
2022-08-05T16:42:30.880Z,553
2022-08-05T16:43:32.680Z,553
2022-08-05T16:44:34.392Z,553.1
2022-08-05T16:46:25.297Z,552.9
2022-08-05T16:48:02.375Z,552.5
2022-08-05T16:49:05.659Z,552.5
2022-08-05T16:50:08.759Z,552.7
2022-08-05T16:51:11.543Z,552.3
2022-08-05T16:52:13.499Z,552.4
2022-08-05T16:54:16.205Z,552.5
2022-08-05T16:55:24.733Z,552.6
2022-08-05T16:56:26.582Z,552.2